createdAt,value
2023-05-13T00:01:52.252Z,20.30
2023-05-13T00:06:54.812Z,16.60
2023-05-13T00:11:57.352Z,17.30
2023-05-13T00:17:02.041Z,18.00
2023-05-13T00:22:05.071Z,14.20
2023-05-13T00:27:08.385Z,16.50
2023-05-13T00:32:11.065Z,13.70
2023-05-13T00:37:14.100Z,14.20
2023-05-13T00:42:16.715Z,16.50
2023-05-13T00:47:19.297Z,16.20
2023-05-13T00:52:21.878Z,14.00
2023-05-13T00:57:24.477Z,14.70
2023-05-13T01:02:46.728Z,17.50
2023-05-13T01:08:04.285Z,19.40
2023-05-13T01:13:13.332Z,17.70
2023-05-13T01:18:20.681Z,16.40
2023-05-13T01:23:23.244Z,15.50
2023-05-13T01:28:25.972Z,14.60
2023-05-13T01:33:29.984Z,13.00
2023-05-13T01:38:34.445Z,18.80
2023-05-13T01:43:37.025Z,13.70
2023-05-13T01:48:39.777Z,20.90
2023-05-13T01:53:42.359Z,12.60
2023-05-13T01:58:45.427Z,10.30
2023-05-13T02:03:48.261Z,12.20
2023-05-13T02:08:50.971Z,10.60
2023-05-13T02:13:53.674Z,11.90
2023-05-13T02:18:56.434Z,10.50
2023-05-13T02:23:59.163Z,14.10
2023-05-13T02:29:01.952Z,11.20
2023-05-13T02:34:04.554Z,20.00
2023-05-13T02:39:07.264Z,17.70
2023-05-13T02:44:10.607Z,13.50
2023-05-13T02:49:14.009Z,15.70
2023-05-13T02:54:16.611Z,10.00
2023-05-13T02:59:19.231Z,11.90
2023-05-13T03:04:22.031Z,12.80
2023-05-13T03:09:24.763Z,11.00
2023-05-13T03:14:28.002Z,11.00
2023-05-13T03:19:30.624Z,12.90
2023-05-13T03:24:33.491Z,12.50
2023-05-13T03:29:36.062Z,17.60
2023-05-13T03:34:38.931Z,24.20
2023-05-13T03:39:41.454Z,22.60
2023-05-13T03:44:44.040Z,14.60
2023-05-13T03:49:47.981Z,17.90
2023-05-13T03:54:50.618Z,16.00
2023-05-13T03:59:53.373Z,15.30
2023-05-13T04:04:55.983Z,13.90
2023-05-13T04:09:58.678Z,14.30
2023-05-13T04:15:01.601Z,15.10
2023-05-13T04:20:05.070Z,13.50
2023-05-13T04:25:08.103Z,14.40
2023-05-13T04:30:11.064Z,11.60
2023-05-13T04:35:13.697Z,14.80
2023-05-13T04:40:16.515Z,13.70
2023-05-13T04:45:19.042Z,14.00
2023-05-13T04:50:21.736Z,12.20
2023-05-13T04:55:27.327Z,11.50
2023-05-13T05:00:30.770Z,12.90
2023-05-13T05:05:33.385Z,10.30
2023-05-13T05:10:35.945Z,11.00
2023-05-13T05:15:38.567Z,12.40
2023-05-13T05:20:41.164Z,12.60
2023-05-13T05:25:43.762Z,12.50
2023-05-13T05:30:46.640Z,10.70
2023-05-13T05:35:49.542Z,9.50
2023-05-13T05:40:52.323Z,9.10
2023-05-13T05:45:54.923Z,9.10
2023-05-13T05:50:57.778Z,6.10
2023-05-13T05:56:00.541Z,7.00
2023-05-13T06:01:03.591Z,4.40
2023-05-13T06:06:06.486Z,5.20
2023-05-13T06:11:09.093Z,6.00
2023-05-13T06:16:14.148Z,6.80
2023-05-13T06:21:16.795Z,7.10
2023-05-13T06:26:19.371Z,8.70
2023-05-13T06:31:21.989Z,7.80
2023-05-13T06:36:26.088Z,7.80
2023-05-13T06:41:28.716Z,5.90
2023-05-13T06:46:31.442Z,7.20
2023-05-13T06:51:35.432Z,6.80
2023-05-13T06:56:38.103Z,5.50
2023-05-13T07:01:42.441Z,7.70
2023-05-13T07:06:45.559Z,7.80
2023-05-13T07:11:48.360Z,4.00
2023-05-13T07:16:51.398Z,5.90
2023-05-13T07:21:54.053Z,7.80
2023-05-13T07:26:56.631Z,8.00
2023-05-13T07:32:04.101Z,9.50
2023-05-13T07:37:06.705Z,11.60
2023-05-13T07:42:10.807Z,9.80
2023-05-13T07:47:14.085Z,7.20
2023-05-13T07:52:17.318Z,5.20
2023-05-13T07:57:19.918Z,4.00
2023-05-13T08:02:24.212Z,4.50
2023-05-13T08:07:26.929Z,7.40
2023-05-13T08:12:29.572Z,5.40
2023-05-13T08:17:32.203Z,8.60
2023-05-13T08:22:34.769Z,6.00
2023-05-13T08:27:37.391Z,7.80
2023-05-13T08:32:40.023Z,5.40
2023-05-13T08:37:42.824Z,3.70
2023-05-13T08:42:50.119Z,4.40
2023-05-13T08:47:58.447Z,5.30
2023-05-13T08:53:01.261Z,6.50
2023-05-13T08:58:03.916Z,4.40
2023-05-13T09:03:07.270Z,4.80
2023-05-13T09:08:10.147Z,7.20
2023-05-13T09:13:14.253Z,10.20
2023-05-13T09:18:18.749Z,7.40
2023-05-13T09:23:23.619Z,6.50
2023-05-13T09:28:26.512Z,7.40
2023-05-13T09:33:31.764Z,4.90
2023-05-13T09:38:39.025Z,9.70
2023-05-13T09:43:42.202Z,5.40
2023-05-13T09:48:44.848Z,6.10
2023-05-13T09:53:47.802Z,6.60
2023-05-13T09:58:53.315Z,9.10
2023-05-13T10:03:58.877Z,11.20
2023-05-13T10:09:03.949Z,9.50
2023-05-13T10:14:07.400Z,5.70
2023-05-13T10:19:10.237Z,4.40
2023-05-13T10:24:13.730Z,7.00
2023-05-13T10:29:16.854Z,6.00
2023-05-13T10:34:19.813Z,3.70
2023-05-13T10:40:02.769Z,7.00
2023-05-13T10:45:07.344Z,3.50
2023-05-13T10:50:25.965Z,10.10
2023-05-13T10:55:29.201Z,14.10
2023-05-13T11:00:32.623Z,6.80
2023-05-13T11:05:36.483Z,7.20
2023-05-13T11:10:41.004Z,3.50
2023-05-13T11:15:50.364Z,9.00
2023-05-13T11:20:54.054Z,5.00
2023-05-13T11:26:16.785Z,3.00
2023-05-13T11:31:19.979Z,6.70
2023-05-13T11:36:30.835Z,6.00
2023-05-13T11:41:34.372Z,7.90
2023-05-13T11:46:37.101Z,5.50
2023-05-13T11:51:40.062Z,7.70
2023-05-13T11:56:42.969Z,9.50
2023-05-13T12:01:45.609Z,3.60
2023-05-13T12:06:49.277Z,8.70
2023-05-13T12:11:52.738Z,3.20
2023-05-13T12:16:57.304Z,6.60
2023-05-13T12:21:59.927Z,7.40
2023-05-13T12:27:08.775Z,6.90
2023-05-13T12:32:16.503Z,7.60
2023-05-13T12:37:19.300Z,7.40
2023-05-13T12:42:22.225Z,7.80
2023-05-13T12:47:24.897Z,5.20
2023-05-13T12:52:27.492Z,4.50
2023-05-13T12:57:32.283Z,4.50
2023-05-13T13:02:35.138Z,3.90
2023-05-13T13:07:38.366Z,5.40
2023-05-13T13:12:41.297Z,3.90
2023-05-13T13:17:43.879Z,5.60
2023-05-13T13:22:46.443Z,3.90
2023-05-13T13:27:49.020Z,6.70
2023-05-13T13:32:51.671Z,3.50
2023-05-13T13:37:54.599Z,7.00
2023-05-13T13:42:58.127Z,7.60
2023-05-13T13:48:00.764Z,6.30
2023-05-13T13:53:03.438Z,5.80
2023-05-13T13:58:06.080Z,6.50
2023-05-13T14:03:08.895Z,6.50
2023-05-13T14:08:12.109Z,15.70
2023-05-13T14:13:14.663Z,5.50
2023-05-13T14:18:17.346Z,9.70
2023-05-13T14:23:19.942Z,5.10
2023-05-13T14:28:24.511Z,6.50
2023-05-13T14:33:27.877Z,6.00
2023-05-13T14:38:31.416Z,4.20
2023-05-13T14:43:33.984Z,4.50
2023-05-13T14:48:36.943Z,6.80
2023-05-13T14:53:39.846Z,4.20
2023-05-13T14:58:42.427Z,6.90
2023-05-13T15:03:44.994Z,6.50
2023-05-13T15:08:47.737Z,5.00
2023-05-13T15:13:50.361Z,6.70
2023-05-13T15:18:53.017Z,4.00
2023-05-13T15:23:55.969Z,12.30
2023-05-13T15:28:58.599Z,11.00
2023-05-13T15:34:02.373Z,5.90
2023-05-13T15:39:04.999Z,3.70
2023-05-13T15:44:07.947Z,6.20
2023-05-13T15:49:10.552Z,4.70
2023-05-13T15:54:13.124Z,5.90
2023-05-13T15:59:15.705Z,9.50
2023-05-13T16:04:18.472Z,5.00
2023-05-13T16:09:21.409Z,6.20
2023-05-13T16:14:24.301Z,6.40
2023-05-13T16:19:26.925Z,6.80
2023-05-13T16:24:29.798Z,11.50
2023-05-13T16:29:32.344Z,7.10
2023-05-13T16:34:36.247Z,6.70
2023-05-13T16:39:38.820Z,9.00
2023-05-13T16:44:41.370Z,7.20
2023-05-13T16:49:45.299Z,13.60
2023-05-13T16:54:48.289Z,4.70
2023-05-13T16:59:50.860Z,7.80
2023-05-13T17:04:53.912Z,7.10
2023-05-13T17:09:56.749Z,15.10
2023-05-13T17:15:01.945Z,9.30
2023-05-13T17:20:05.574Z,7.20
2023-05-13T17:25:08.600Z,6.80
2023-05-13T17:30:11.524Z,7.00
2023-05-13T17:35:14.405Z,5.80
2023-05-13T17:40:17.038Z,5.70
2023-05-13T17:45:19.739Z,8.40
2023-05-13T17:50:22.667Z,9.60
2023-05-13T17:55:26.599Z,11.90
2023-05-13T18:00:31.547Z,10.90
2023-05-13T18:05:34.550Z,10.30
2023-05-13T18:10:37.426Z,10.00
2023-05-13T18:15:40.189Z,11.00
2023-05-13T18:20:42.823Z,8.20
2023-05-13T18:25:55.012Z,11.20
2023-05-13T18:30:58.114Z,9.30
2023-05-13T18:36:04.550Z,9.70
2023-05-13T18:41:07.222Z,9.40
2023-05-13T18:46:10.022Z,15.50
2023-05-13T18:51:14.314Z,16.90
2023-05-13T18:56:17.147Z,15.20
2023-05-13T19:01:22.629Z,14.40
2023-05-13T19:06:25.481Z,23.00
2023-05-13T19:11:28.089Z,12.10
2023-05-13T19:16:30.775Z,14.20
2023-05-13T19:21:33.404Z,9.60
2023-05-13T19:26:36.384Z,11.30
2023-05-13T19:31:39.003Z,8.20
2023-05-13T19:36:42.082Z,10.30
2023-05-13T19:41:47.152Z,8.90
2023-05-13T19:46:49.791Z,9.00
2023-05-13T19:51:52.925Z,11.10
2023-05-13T19:56:56.040Z,10.00
2023-05-13T20:01:58.834Z,14.80
2023-05-13T20:07:01.492Z,10.10
2023-05-13T20:12:04.641Z,11.70
2023-05-13T20:17:07.154Z,17.40
2023-05-13T20:22:10.467Z,19.80
2023-05-13T20:27:13.075Z,12.80
2023-05-13T20:32:24.280Z,28.40
2023-05-13T20:37:28.399Z,18.80
2023-05-13T20:42:31.094Z,24.20
2023-05-13T20:47:33.649Z,28.40
2023-05-13T20:52:36.252Z,26.10
2023-05-13T20:57:39.341Z,24.60
2023-05-13T21:02:41.946Z,26.10
2023-05-13T21:07:44.540Z,24.20
2023-05-13T21:12:48.082Z,24.90
2023-05-13T21:17:50.728Z,29.40
2023-05-13T21:22:54.097Z,23.20
2023-05-13T21:27:56.620Z,22.40
2023-05-13T21:32:59.537Z,24.00
2023-05-13T21:38:11.508Z,22.80
2023-05-13T21:43:15.149Z,18.30
2023-05-13T21:48:17.765Z,22.90
2023-05-13T21:53:20.385Z,16.10
2023-05-13T21:58:23.664Z,18.00
2023-05-13T22:03:26.525Z,20.80
2023-05-13T22:08:29.897Z,20.80
2023-05-13T22:13:32.475Z,25.80
2023-05-13T22:18:35.193Z,26.00
2023-05-13T22:23:38.019Z,27.00
2023-05-13T22:28:40.653Z,22.20
2023-05-13T22:33:44.240Z,18.90
2023-05-13T22:38:46.904Z,14.50
2023-05-13T22:43:50.370Z,19.10
2023-05-13T22:48:53.320Z,20.10
2023-05-13T22:53:55.859Z,14.70
2023-05-13T22:58:58.401Z,15.20
2023-05-13T23:04:01.223Z,18.60
2023-05-13T23:09:04.524Z,16.90
2023-05-13T23:14:08.868Z,14.30
2023-05-13T23:19:11.509Z,16.30
2023-05-13T23:24:14.252Z,19.40
2023-05-13T23:29:16.999Z,15.80
2023-05-13T23:34:19.540Z,15.00
2023-05-13T23:39:22.057Z,15.30
2023-05-13T23:44:24.701Z,14.60
2023-05-13T23:49:27.322Z,15.20
2023-05-13T23:54:29.886Z,16.40
2023-05-13T23:59:32.443Z,12.00
